Time,TemperatureF,DewpointF,PressureIn,WindDirection,WindDirectionDegrees,WindSpeedMPH,WindSpeedGustMPH,Humidity,HourlyPrecipIn,Conditions,Clouds,dailyrainin,SolarRadiationWatts/m^2,SoftwareType,DateUTC
2014-01-09 00:03:00,23.0,13.0,30.62,SSW,204,1.0,3.0,66,0.00,,,0.00,0.000000,,2014-01-09 05:03:00,
2014-01-09 00:10:00,23.0,15.0,30.61,ENE,58,1.0,3.0,71,0.00,,,0.00,0.000000,,2014-01-09 05:10:00,
2014-01-09 00:43:00,23.0,15.0,30.61,ENE,58,1.0,3.0,71,0.00,,,0.00,0.000000,,2014-01-09 05:43:00,
2014-01-09 00:53:00,23.0,15.0,30.61,ENE,58,1.0,3.0,71,0.00,,,0.00,0.000000,,2014-01-09 05:53:00,
2014-01-09 01:02:00,23.0,15.0,30.61,ENE,58,1.0,3.0,71,0.00,,,0.00,0.000000,,2014-01-09 06:02:00,
2014-01-09 01:10:00,24.0,18.0,30.59,West,277,1.0,2.0,78,0.00,,,0.00,0.000000,,2014-01-09 06:10:00,
2014-01-09 01:42:00,24.0,18.0,30.59,West,277,1.0,2.0,78,0.00,,,0.00,0.000000,,2014-01-09 06:42:00,
2014-01-09 01:52:00,24.0,18.0,30.59,West,277,1.0,2.0,78,0.00,,,0.00,0.000000,,2014-01-09 06:52:00,
2014-01-09 02:02:00,24.0,18.0,30.59,West,277,1.0,2.0,78,0.00,,,0.00,0.000000,,2014-01-09 07:02:00,
2014-01-09 02:10:00,24.0,18.0,30.61,NW,322,1.0,4.0,76,0.00,,,0.00,0.000000,,2014-01-09 07:10:00,
2014-01-09 02:42:00,24.0,18.0,30.61,NW,322,1.0,4.0,76,0.00,,,0.00,0.000000,,2014-01-09 07:42:00,
2014-01-09 02:52:00,24.0,18.0,30.61,NW,322,1.0,4.0,76,0.00,,,0.00,0.000000,,2014-01-09 07:52:00,
2014-01-09 03:02:00,24.0,18.0,30.61,NW,322,1.0,4.0,76,0.00,,,0.00,0.000000,,2014-01-09 08:02:00,
2014-01-09 03:10:00,23.0,16.0,30.60,North,-999,0.0,5.0,73,0.00,,,0.00,0.000000,,2014-01-09 08:10:00,
2014-01-09 03:42:00,23.0,16.0,30.60,North,-999,0.0,5.0,73,0.00,,,0.00,0.000000,,2014-01-09 08:42:00,
2014-01-09 03:53:00,23.0,16.0,30.60,North,-999,0.0,5.0,73,0.00,,,0.00,0.000000,,2014-01-09 08:53:00,
2014-01-09 04:02:00,23.0,16.0,30.60,North,-999,0.0,5.0,73,0.00,,,0.00,0.000000,,2014-01-09 09:02:00,
2014-01-09 04:10:00,23.0,17.0,30.60,NW,310,1.0,3.0,77,0.00,,,0.00,0.000000,,2014-01-09 09:10:00,
2014-01-09 04:43:00,23.0,17.0,30.60,NW,310,1.0,3.0,77,0.00,,,0.00,0.000000,,2014-01-09 09:43:00,
2014-01-09 04:53:00,23.0,17.0,30.60,NW,310,1.0,3.0,77,0.00,,,0.00,0.000000,,2014-01-09 09:53:00,
2014-01-09 05:03:00,23.0,17.0,30.60,NW,310,1.0,3.0,77,0.00,,,0.00,0.000000,,2014-01-09 10:03:00,
2014-01-09 05:10:00,23.0,17.0,30.59,NE,53,1.0,2.0,78,0.00,,,0.00,0.000000,,2014-01-09 10:10:00,
2014-01-09 05:43:00,23.0,17.0,30.59,NE,53,1.0,2.0,78,0.00,,,0.00,0.000000,,2014-01-09 10:43:00,
2014-01-09 05:53:00,23.0,17.0,30.59,NE,53,1.0,2.0,78,0.00,,,0.00,0.000000,,2014-01-09 10:53:00,
2014-01-09 06:02:00,23.0,17.0,30.59,NE,53,1.0,2.0,78,0.00,,,0.00,0.000000,,2014-01-09 11:02:00,
2014-01-09 06:10:00,22.0,16.0,30.60,West,268,1.0,2.0,79,0.00,,,-99.99,0.000000,,2014-01-09 11:10:00,
2014-01-09 06:42:00,22.0,16.0,30.60,West,268,1.0,2.0,79,0.00,,,-99.99,0.000000,,2014-01-09 11:42:00,
2014-01-09 06:52:00,22.0,16.0,30.60,West,268,1.0,2.0,79,0.00,,,-99.99,0.000000,,2014-01-09 11:52:00,
2014-01-09 07:02:00,22.0,16.0,30.60,West,268,1.0,2.0,79,0.00,,,-99.99,0.000000,,2014-01-09 12:02:00,
2014-01-09 07:10:00,20.0,16.0,30.61,SSW,207,1.0,2.0,83,0.00,,,0.00,0.000000,,2014-01-09 12:10:00,
2014-01-09 07:42:00,20.0,16.0,30.61,SSW,207,1.0,2.0,83,0.00,,,0.00,0.000000,,2014-01-09 12:42:00,
2014-01-09 07:52:00,20.0,16.0,30.61,SSW,207,1.0,2.0,83,0.00,,,0.00,0.000000,,2014-01-09 12:52:00,
2014-01-09 08:02:00,20.0,16.0,30.61,SSW,207,1.0,2.0,83,0.00,,,0.00,0.000000,,2014-01-09 13:02:00,
2014-01-09 08:10:00,21.0,16.0,30.62,East,83,1.0,4.0,82,0.00,,,0.00,6.000000,,2014-01-09 13:10:00,
2014-01-09 08:42:00,21.0,16.0,30.62,East,83,1.0,4.0,82,0.00,,,0.00,6.000000,,2014-01-09 13:42:00,
2014-01-09 08:52:00,21.0,16.0,30.62,East,83,1.0,4.0,82,0.00,,,0.00,6.000000,,2014-01-09 13:52:00,
2014-01-09 09:02:00,21.0,16.0,30.62,East,83,1.0,4.0,82,0.00,,,0.00,6.000000,,2014-01-09 14:02:00,
2014-01-09 09:10:00,27.0,20.0,30.65,South,187,3.0,5.0,74,0.00,,,0.00,39.000000,,2014-01-09 14:10:00,
2014-01-09 09:42:00,27.0,20.0,30.65,South,187,3.0,5.0,74,0.00,,,0.00,39.000000,,2014-01-09 14:42:00,
2014-01-09 09:52:00,27.0,20.0,30.65,South,187,3.0,5.0,74,0.00,,,0.00,39.000000,,2014-01-09 14:52:00,
2014-01-09 10:02:00,27.0,20.0,30.65,South,187,3.0,5.0,74,0.00,,,0.00,39.000000,,2014-01-09 15:02:00,
2014-01-09 10:10:00,39.0,17.0,30.65,West,275,1.0,7.0,41,0.00,,,0.00,163.000000,,2014-01-09 15:10:00,
2014-01-09 10:43:00,39.0,17.0,30.65,West,275,1.0,7.0,41,0.00,,,0.00,163.000000,,2014-01-09 15:43:00,
2014-01-09 10:54:00,39.0,17.0,30.65,West,275,1.0,7.0,41,0.00,,,0.00,163.000000,,2014-01-09 15:54:00,
2014-01-09 11:04:00,39.0,17.0,30.65,West,275,1.0,7.0,41,0.00,,,0.00,163.000000,,2014-01-09 16:04:00,
2014-01-09 19:10:00,42.0,19.0,30.57,ENE,68,1.0,4.0,40,0.00,,,0.00,0.000000,,2014-01-10 00:10:00,
2014-01-09 19:42:00,42.0,19.0,30.57,ENE,68,1.0,4.0,40,0.00,,,0.00,0.000000,,2014-01-10 00:42:00,
2014-01-09 19:52:00,42.0,19.0,30.57,ENE,68,1.0,4.0,40,0.00,,,0.00,0.000000,,2014-01-10 00:52:00,
2014-01-09 20:02:00,42.0,19.0,30.57,ENE,68,1.0,4.0,40,0.00,,,0.00,0.000000,,2014-01-10 01:02:00,
2014-01-09 20:10:00,41.0,23.0,30.58,NNE,33,1.0,4.0,49,0.00,,,0.00,0.000000,,2014-01-10 01:10:00,
2014-01-09 20:42:00,41.0,23.0,30.58,NNE,33,1.0,4.0,49,0.00,,,0.00,0.000000,,2014-01-10 01:42:00,
2014-01-09 20:52:00,41.0,23.0,30.58,NNE,33,1.0,4.0,49,0.00,,,0.00,0.000000,,2014-01-10 01:52:00,
2014-01-09 21:02:00,41.0,23.0,30.58,NNE,33,1.0,4.0,49,0.00,,,0.00,0.000000,,2014-01-10 02:02:00,
2014-01-09 21:10:00,42.0,30.0,30.58,NW,324,1.0,4.0,61,0.00,,,0.00,0.000000,,2014-01-10 02:10:00,
2014-01-09 21:42:00,42.0,30.0,30.58,NW,324,1.0,4.0,61,0.00,,,0.00,0.000000,,2014-01-10 02:42:00,
2014-01-09 21:52:00,42.0,30.0,30.58,NW,324,1.0,4.0,61,0.00,,,0.00,0.000000,,2014-01-10 02:52:00,
2014-01-09 22:02:00,42.0,30.0,30.58,NW,324,1.0,4.0,61,0.00,,,0.00,0.000000,,2014-01-10 03:02:00,
2014-01-09 22:10:00,42.0,29.0,30.57,North,2,3.0,6.0,59,0.00,,,0.00,0.000000,,2014-01-10 03:10:00,
2014-01-09 22:43:00,42.0,29.0,30.57,North,2,3.0,6.0,59,0.00,,,0.00,0.000000,,2014-01-10 03:43:00,
2014-01-09 22:54:00,42.0,29.0,30.57,North,2,3.0,6.0,59,0.00,,,0.00,0.000000,,2014-01-10 03:54:00,
2014-01-09 23:03:00,42.0,29.0,30.57,North,2,3.0,6.0,59,0.00,,,0.00,0.000000,,2014-01-10 04:03:00,
2014-01-09 23:10:00,41.0,30.0,30.56,NNE,24,2.0,7.0,64,0.00,,,-99.99,0.000000,,2014-01-10 04:10:00,
2014-01-09 23:42:00,41.0,30.0,30.56,NNE,24,2.0,7.0,64,0.00,,,-99.99,0.000000,,2014-01-10 04:42:00,
2014-01-09 23:53:00,41.0,30.0,30.56,NNE,24,2.0,7.0,64,0.00,,,-99.99,0.000000,,2014-01-10 04:53:00,